• Join FlightAware (Why Join?)
  • Login
  • US Flag 
07:35PM EST


 

Airport Tracker/Info


-or-


 

Live Flight TrackerFlight Track Log ✈ EJA829P ✈ 20-Jul-2013 ✈ KASE - KPSO

Flight Track Log - Related Links

Times and Time Zones

All times are in EDT time to prevent confusion due to time zone crossing. See the EJA829P flight status page for this flight to view local times or setup timezone preferences in your user account.

Time Position Orientation Groundspeed Altitude Reporting Facility
EDT Latitude Longitude Course Direction KTS MPH feet Rate Location/Type
02:49PM 39.2744 -106.9286 289° West 267 307 10,600  Level Denver Center
02:50PM 39.3044 -107.0389 289° West 271 312 13,300 2,280 Climbing Denver Center
02:52PM 39.3797 -107.0611 347° North 302 348 15,400 1,980 Climbing Denver Center
02:53PM 39.3792 -106.9681 90° East 309 356 17,400 2,280 Climbing Denver Center
02:54PM 39.2964 -106.9622 177° South 298 343 20,200 1,560 Climbing Denver Center
02:55PM 39.1986 -106.9708 184° South 341 392 21,000 300 Climbing Denver Center
02:56PM 39.0603 -106.9717 180° South 391 450 21,000  Level Denver Center
02:57PM 38.9547 -106.9697 179° South 394 453 21,000  Level Denver Center
02:58PM 38.8411 -106.9700 180° South 376 433 21,000  Level Denver Center
02:59PM 38.7369 -106.9739 182° South 373 429 21,000  Level Denver Center
03:00PM 38.6253 -106.9661 177° South 394 453 21,000  Level Denver Center
03:01PM 38.5144 -106.9644 179° South 397 457 21,000  Level Denver Center
03:02PM 38.4047 -106.9728 183° South 393 452 21,000  Level Denver Center
03:03PM 38.2733 -106.9817 183° South 393 452 21,000  Level Denver Center
03:04PM 38.1467 -106.9903 183° South 382 440 21,000  Level Denver Center
03:05PM 38.0372 -106.9986 183° South 376 433 21,000  Level Denver Center
03:06PM 37.9369 -107.0078 184° South 377 434 21,000  Level Denver Center
03:07PM 37.8408 -107.0125 182° South 365 420 21,000  Level Denver Center
03:08PM 37.7475 -107.0208 184° South 307 353 21,000 -540 Level Denver Center
03:09PM 37.6658 -107.0303 185° South 304 350 20,000 -1,800 Descending Denver Center
03:10PM 37.5592 -107.0428 185° South 324 373 17,300 -2,220 Descending Denver Center
03:12PM 37.4589 -107.0453 181° South 351 404 15,500 -1,800 Descending Denver Center
03:14PM 37.2947 -107.0497 181° South  Level FlightAware Approximate
03:21PM 37.2833 -107.0500 184° South  Level FlightAware Approximate
03:22PM 37.2863 -107.0560 184° South  Level Estimated
03:23PM 37.2833 -107.0500 184° South  Level FlightAware Approximate
03:24PM 37.2863 -107.0560 184° South  Level Estimated
03:25PM 37.2833 -107.0500 184° South  Level FlightAware Approximate
03:26PM 37.2863 -107.0560 184° South  Level Estimated
03:27PM 37.2833 -107.0500 184° South  Level FlightAware Approximate
03:28PM 37.2863 -107.0560 184° South  Level Estimated
03:29PM 37.2833 -107.0500 184° South  Level FlightAware Approximate